createdAt,value
2024-03-04T00:00:00.903Z,19.40
2024-03-04T00:02:29.276Z,22.50
2024-03-04T00:04:57.130Z,19.90
2024-03-04T00:07:27.551Z,20.60
2024-03-04T00:09:55.413Z,21.30
2024-03-04T00:12:23.876Z,17.90
2024-03-04T00:14:53.054Z,19.40
2024-03-04T00:17:20.901Z,18.70
2024-03-04T00:19:48.714Z,20.10
2024-03-04T00:22:16.579Z,18.10
2024-03-04T00:24:45.961Z,21.10
2024-03-04T00:27:13.851Z,19.70
2024-03-04T00:29:42.057Z,20.40
2024-03-04T00:32:09.971Z,20.10
2024-03-04T00:34:38.155Z,19.80
2024-03-04T00:37:06.516Z,20.20
2024-03-04T00:39:34.320Z,19.40
2024-03-04T00:42:05.133Z,17.50
2024-03-04T00:44:35.718Z,19.00
2024-03-04T00:47:04.342Z,22.40
2024-03-04T00:49:32.255Z,17.50
2024-03-04T00:52:00.230Z,17.80
2024-03-04T00:54:28.082Z,21.70
2024-03-04T00:56:57.013Z,22.20
2024-03-04T00:59:24.964Z,23.70
2024-03-04T01:01:52.770Z,21.40
2024-03-04T01:04:20.709Z,21.70
2024-03-04T01:06:53.458Z,20.00
2024-03-04T01:09:21.725Z,19.30
2024-03-04T01:11:51.555Z,19.60
2024-03-04T01:14:21.616Z,20.80
2024-03-04T01:16:53.719Z,22.20
2024-03-04T01:19:21.739Z,24.50
2024-03-04T01:21:49.613Z,21.50
2024-03-04T01:24:19.121Z,21.80
2024-03-04T01:26:47.053Z,22.60
2024-03-04T01:29:14.933Z,23.30
2024-03-04T01:31:44.058Z,21.30
2024-03-04T01:34:14.919Z,20.20
2024-03-04T01:36:42.718Z,22.50
2024-03-04T01:39:10.628Z,23.60
2024-03-04T01:41:38.709Z,23.80
2024-03-04T01:44:06.502Z,25.10
2024-03-04T01:46:35.169Z,23.70
2024-03-04T01:49:03.171Z,22.60
2024-03-04T01:51:31.703Z,22.10
2024-03-04T01:53:59.536Z,21.80
2024-03-04T01:56:28.059Z,21.30
2024-03-04T01:58:56.925Z,21.20
2024-03-04T02:01:27.355Z,20.70
2024-03-04T02:03:55.755Z,24.50
2024-03-04T02:06:26.703Z,21.40
2024-03-04T02:08:54.529Z,21.80
2024-03-04T02:11:22.374Z,21.40
2024-03-04T02:13:50.316Z,20.30
2024-03-04T02:16:23.064Z,22.00
2024-03-04T02:18:54.068Z,22.00
2024-03-04T02:21:23.016Z,22.70
2024-03-04T02:23:51.132Z,22.40
2024-03-04T02:26:19.134Z,20.40
2024-03-04T02:28:46.967Z,23.30
2024-03-04T02:31:15.125Z,23.30
2024-03-04T02:33:45.921Z,22.00
2024-03-04T02:36:13.943Z,21.80
2024-03-04T02:38:42.477Z,24.80
2024-03-04T02:41:10.614Z,23.20
2024-03-04T02:43:38.580Z,28.90
2024-03-04T02:46:06.667Z,21.60
2024-03-04T02:48:34.736Z,19.30
2024-03-04T02:51:02.487Z,22.10
2024-03-04T02:53:30.311Z,23.40
2024-03-04T02:55:58.200Z,23.10
2024-03-04T02:58:26.253Z,22.60
2024-03-04T03:00:54.293Z,26.30
2024-03-04T03:03:24.116Z,24.10
2024-03-04T03:05:52.203Z,24.60
2024-03-04T03:08:20.132Z,20.10
2024-03-04T03:10:48.403Z,24.30
2024-03-04T03:13:16.439Z,22.90
2024-03-04T03:15:45.851Z,22.80
2024-03-04T03:18:15.176Z,20.90
2024-03-04T03:20:43.155Z,21.20
2024-03-04T03:23:13.770Z,24.50
2024-03-04T03:25:41.647Z,23.20
2024-03-04T03:28:09.632Z,24.00
2024-03-04T03:30:37.515Z,24.80
2024-03-04T03:33:05.498Z,25.60
2024-03-04T03:35:33.685Z,26.60
2024-03-04T03:38:01.547Z,24.30
2024-03-04T03:40:32.800Z,29.00
2024-03-04T03:43:00.854Z,26.10
2024-03-04T03:45:28.987Z,23.10
2024-03-04T03:47:56.912Z,28.30
2024-03-04T03:50:24.823Z,26.90
2024-03-04T03:52:52.727Z,25.90
2024-03-04T03:55:20.670Z,22.90
2024-03-04T03:57:55.663Z,26.00
2024-03-04T04:00:29.034Z,28.50
2024-03-04T04:02:58.930Z,28.30
2024-03-04T04:05:28.703Z,27.80
2024-03-04T04:07:56.934Z,25.80
2024-03-04T04:10:27.433Z,27.30
2024-03-04T04:13:00.363Z,29.30
2024-03-04T04:15:29.969Z,29.90
2024-03-04T04:17:58.472Z,24.50
2024-03-04T04:20:28.583Z,25.20
2024-03-04T04:22:56.327Z,24.70
2024-03-04T04:25:24.188Z,27.20
2024-03-04T04:27:52.236Z,27.40
2024-03-04T04:30:23.919Z,28.00
2024-03-04T04:32:51.778Z,26.70
2024-03-04T04:35:21.583Z,26.40
2024-03-04T04:37:49.388Z,27.10
2024-03-04T04:40:20.659Z,26.80
2024-03-04T04:42:49.245Z,24.90
2024-03-04T04:45:16.992Z,26.50
2024-03-04T04:47:45.060Z,23.70
2024-03-04T04:50:13.554Z,25.80
2024-03-04T04:52:41.471Z,28.00
2024-03-04T04:55:09.547Z,25.60
2024-03-04T04:57:37.373Z,21.90
2024-03-04T05:00:05.731Z,21.50
2024-03-04T05:02:33.542Z,32.60
2024-03-04T05:05:01.588Z,22.00
2024-03-04T05:07:29.898Z,24.90
2024-03-04T05:09:59.320Z,26.90
2024-03-04T05:12:27.583Z,27.30
2024-03-04T05:14:56.082Z,28.50
2024-03-04T05:17:24.182Z,25.70
2024-03-04T05:19:52.342Z,27.30
2024-03-04T05:22:20.262Z,27.70
2024-03-04T05:24:48.156Z,28.60
2024-03-04T05:27:15.979Z,29.40
2024-03-04T05:29:43.787Z,26.50
2024-03-04T05:32:12.180Z,24.50
2024-03-04T05:34:42.095Z,28.50
2024-03-04T05:37:13.002Z,25.90
2024-03-04T05:39:41.001Z,28.60
2024-03-04T05:42:09.820Z,27.80
2024-03-04T05:44:37.578Z,31.20
2024-03-04T05:47:05.450Z,28.00
2024-03-04T05:49:33.545Z,26.60
2024-03-04T05:52:01.494Z,29.30
2024-03-04T05:54:29.346Z,31.80
2024-03-04T05:56:57.305Z,26.60
2024-03-04T05:59:25.160Z,30.00
2024-03-04T06:01:53.479Z,28.90
2024-03-04T06:04:21.463Z,30.00
2024-03-04T06:06:49.294Z,29.50
2024-03-04T06:09:18.100Z,28.60
2024-03-04T06:11:47.604Z,31.50
2024-03-04T06:14:16.031Z,28.30
2024-03-04T06:16:44.017Z,24.80
2024-03-04T06:19:12.222Z,28.50
2024-03-04T06:21:40.124Z,30.00
2024-03-04T06:24:08.030Z,34.80
2024-03-04T06:26:36.020Z,32.50
2024-03-04T06:29:03.805Z,30.00
2024-03-04T06:31:31.656Z,34.00
2024-03-04T06:34:08.404Z,35.60
2024-03-04T06:36:43.389Z,32.10
2024-03-04T06:39:11.272Z,33.00
2024-03-04T06:41:39.120Z,32.30
2024-03-04T06:44:08.880Z,34.30
2024-03-04T06:46:36.913Z,33.00
2024-03-04T06:49:05.068Z,33.50
2024-03-04T06:51:36.723Z,36.50
2024-03-04T06:54:11.422Z,34.10
2024-03-04T06:56:39.318Z,35.10
2024-03-04T06:59:07.296Z,31.60
2024-03-04T07:01:35.523Z,34.30
2024-03-04T07:04:03.599Z,33.50
2024-03-04T07:06:31.669Z,31.40
2024-03-04T07:08:59.649Z,32.20
2024-03-04T07:11:27.680Z,32.60
2024-03-04T07:13:55.658Z,35.70
2024-03-04T07:16:23.560Z,36.10
2024-03-04T07:18:53.902Z,32.50
2024-03-04T07:21:21.952Z,29.60
2024-03-04T07:23:49.926Z,33.90
2024-03-04T07:26:21.287Z,32.80
2024-03-04T07:28:49.804Z,32.90
2024-03-04T07:31:18.410Z,35.60
2024-03-04T07:33:47.857Z,37.80
2024-03-04T07:36:17.240Z,34.80
2024-03-04T07:38:45.723Z,36.30
2024-03-04T07:41:13.762Z,41.80
2024-03-04T07:43:42.472Z,32.30
2024-03-04T07:46:10.505Z,33.90
2024-03-04T07:48:38.382Z,38.70
2024-03-04T07:51:07.129Z,38.50
2024-03-04T07:53:35.032Z,39.50
2024-03-04T07:56:03.102Z,37.50
2024-03-04T07:58:31.384Z,34.20
2024-03-04T08:01:01.261Z,38.90
2024-03-04T08:03:29.454Z,35.80
2024-03-04T08:05:57.643Z,39.90
2024-03-04T08:08:25.525Z,37.30
2024-03-04T08:10:54.471Z,34.40
2024-03-04T08:13:22.470Z,38.10
2024-03-04T08:15:50.698Z,36.60
2024-03-04T08:18:18.607Z,35.60
2024-03-04T08:20:46.653Z,36.70
2024-03-04T08:23:14.576Z,36.00
2024-03-04T08:25:42.521Z,34.40
2024-03-04T08:28:19.832Z,34.00
2024-03-04T08:30:52.489Z,38.30
2024-03-04T08:33:20.848Z,33.40
2024-03-04T08:35:48.794Z,33.50
2024-03-04T08:38:16.751Z,37.60
2024-03-04T08:40:44.832Z,36.50
2024-03-04T08:43:15.054Z,36.40
2024-03-04T08:45:42.977Z,40.30
2024-03-04T08:48:10.944Z,34.00
2024-03-04T08:50:38.983Z,35.50
2024-03-04T08:53:06.969Z,33.80
2024-03-04T08:55:35.080Z,38.90
2024-03-04T08:58:03.639Z,33.50
2024-03-04T09:00:31.931Z,36.70
2024-03-04T09:02:59.853Z,32.80
2024-03-04T09:05:28.221Z,35.80
2024-03-04T09:07:56.085Z,33.20
2024-03-04T09:10:24.240Z,32.80
2024-03-04T09:12:52.457Z,32.10
2024-03-04T09:15:21.693Z,35.80
2024-03-04T09:17:49.907Z,31.60
2024-03-04T09:20:18.997Z,37.10
2024-03-04T09:22:46.977Z,29.80
2024-03-04T09:28:00.200Z,29.10
2024-03-04T09:30:28.497Z,34.20
2024-03-04T09:32:56.499Z,30.00
2024-03-04T09:35:24.404Z,32.40
2024-03-04T09:37:52.579Z,32.30
2024-03-04T09:40:20.739Z,34.00
2024-03-04T09:42:49.445Z,32.00
2024-03-04T09:45:18.739Z,31.80
2024-03-04T09:47:49.734Z,33.70
2024-03-04T09:50:18.422Z,29.90
2024-03-04T09:52:46.821Z,29.30
2024-03-04T09:55:15.129Z,31.00
2024-03-04T09:57:43.939Z,29.90
2024-03-04T10:00:15.797Z,27.30
2024-03-04T10:02:44.654Z,30.20
2024-03-04T10:05:14.393Z,28.70
2024-03-04T10:07:42.506Z,33.30
2024-03-04T10:10:14.606Z,31.00
2024-03-04T10:12:42.918Z,29.90
2024-03-04T10:15:12.122Z,29.70
2024-03-04T10:17:40.877Z,30.10
2024-03-04T10:20:13.204Z,33.00
2024-03-04T10:25:14.743Z,30.20
2024-03-04T10:27:44.983Z,27.00
2024-03-04T10:30:14.022Z,28.00
2024-03-04T10:33:07.235Z,26.40
2024-03-04T10:35:36.277Z,29.60
2024-03-04T10:38:05.013Z,31.00
2024-03-04T10:40:38.305Z,27.50
2024-03-04T10:43:08.029Z,27.70
2024-03-04T10:45:36.993Z,25.40
2024-03-04T10:48:05.778Z,28.50
2024-03-04T10:50:33.790Z,28.40
2024-03-04T10:53:03.798Z,32.70
2024-03-04T10:55:33.095Z,26.10
2024-03-04T10:58:03.698Z,26.90
2024-03-04T11:00:34.642Z,25.10
2024-03-04T11:03:03.422Z,23.80
2024-03-04T11:05:34.952Z,26.10
2024-03-04T11:08:22.064Z,21.40
2024-03-04T11:11:12.028Z,23.30
2024-03-04T11:13:58.816Z,24.60
2024-03-04T11:16:41.832Z,23.00
2024-03-04T11:19:23.779Z,24.70
2024-03-04T11:21:52.113Z,23.40
2024-03-04T11:24:20.922Z,17.40
2024-03-04T11:26:50.140Z,18.70
2024-03-04T11:29:19.794Z,19.90
2024-03-04T11:31:57.917Z,19.20
2024-03-04T11:34:26.277Z,17.70
2024-03-04T11:36:57.337Z,18.80
2024-03-04T11:39:26.733Z,20.30
2024-03-04T11:41:54.952Z,23.20
2024-03-04T11:44:30.409Z,20.60
2024-03-04T11:46:58.991Z,18.50
2024-03-04T11:49:27.748Z,20.70
2024-03-04T11:52:15.718Z,23.30
2024-03-04T11:54:44.762Z,21.40
2024-03-04T11:57:12.796Z,20.60
2024-03-04T11:59:42.228Z,22.50
2024-03-04T12:02:11.359Z,26.20
2024-03-04T12:04:41.852Z,23.30
2024-03-04T12:07:10.088Z,27.20
2024-03-04T12:09:50.987Z,23.00
2024-03-04T12:12:26.136Z,22.30
2024-03-04T12:14:54.112Z,29.20
2024-03-04T12:17:22.073Z,27.80
2024-03-04T12:19:57.081Z,22.60
2024-03-04T12:22:32.043Z,25.50
2024-03-04T12:25:08.057Z,24.30
2024-03-04T12:27:37.127Z,24.10
2024-03-04T12:30:24.923Z,25.40
2024-03-04T12:32:53.988Z,24.30
2024-03-04T12:35:30.202Z,21.10
2024-03-04T12:37:59.966Z,20.90
2024-03-04T12:40:28.234Z,22.30
2024-03-04T12:42:59.748Z,23.60
2024-03-04T12:45:28.590Z,28.60
2024-03-04T12:47:58.482Z,23.80
2024-03-04T12:50:28.287Z,29.90
2024-03-04T12:52:57.656Z,33.30
2024-03-04T12:55:26.120Z,31.50
2024-03-04T12:57:57.416Z,28.60
2024-03-04T13:00:26.347Z,30.80
2024-03-04T13:02:54.459Z,27.80
2024-03-04T13:05:22.431Z,31.50
2024-03-04T13:07:50.396Z,39.60
2024-03-04T13:10:18.503Z,44.30
2024-03-04T13:12:49.435Z,44.60
2024-03-04T13:15:17.857Z,42.80
2024-03-04T13:17:46.295Z,44.70
2024-03-04T13:20:15.175Z,51.80
2024-03-04T13:22:49.891Z,51.70
2024-03-04T13:25:19.825Z,50.50
2024-03-04T13:27:48.335Z,51.80
2024-03-04T13:30:16.458Z,54.90
2024-03-04T13:32:46.215Z,53.90
2024-03-04T13:35:14.575Z,56.60
2024-03-04T13:37:42.636Z,53.20
2024-03-04T13:40:12.331Z,54.30
2024-03-04T13:42:42.320Z,56.90
2024-03-04T13:45:10.873Z,54.60
2024-03-04T13:47:39.474Z,61.90
2024-03-04T13:50:07.931Z,52.40
2024-03-04T13:52:36.118Z,54.50
2024-03-04T13:55:04.323Z,51.10
2024-03-04T13:57:33.398Z,57.10
2024-03-04T14:00:01.436Z,57.80
2024-03-04T14:02:29.495Z,49.90
2024-03-04T14:04:57.466Z,54.90
2024-03-04T14:07:26.072Z,54.20
2024-03-04T14:09:56.546Z,50.80
2024-03-04T14:12:24.653Z,53.00
2024-03-04T14:14:52.559Z,54.90
2024-03-04T14:17:20.451Z,52.80
2024-03-04T14:19:48.598Z,52.30
2024-03-04T14:22:16.562Z,49.30
2024-03-04T14:24:44.560Z,48.80
2024-03-04T14:27:12.496Z,51.80
2024-03-04T14:29:44.040Z,58.20
2024-03-04T14:32:12.024Z,51.60
2024-03-04T14:34:40.204Z,52.60
2024-03-04T14:37:08.156Z,50.40
2024-03-04T14:39:36.099Z,54.50
2024-03-04T14:42:05.060Z,55.20
2024-03-04T14:44:32.970Z,52.00
2024-03-04T14:47:00.882Z,49.80
2024-03-04T14:49:29.460Z,57.30
2024-03-04T14:51:57.364Z,56.80
2024-03-04T14:54:25.250Z,55.20
2024-03-04T14:56:53.273Z,58.30
2024-03-04T14:59:21.162Z,56.90
2024-03-04T15:01:50.305Z,50.20
2024-03-04T15:04:18.563Z,51.90
2024-03-04T15:06:46.436Z,57.30
2024-03-04T15:09:14.491Z,51.30
2024-03-04T15:11:45.768Z,55.70
2024-03-04T15:14:13.777Z,47.30
2024-03-04T15:16:48.684Z,51.90
2024-03-04T15:19:16.706Z,52.00
2024-03-04T15:21:44.635Z,47.60
2024-03-04T15:24:12.560Z,50.60
2024-03-04T15:26:55.576Z,55.90
2024-03-04T15:29:23.589Z,51.40
2024-03-04T15:31:51.483Z,51.80
2024-03-04T15:34:19.323Z,56.40
2024-03-04T15:36:50.736Z,53.50
2024-03-04T15:39:19.318Z,54.40
2024-03-04T15:41:47.168Z,55.60
2024-03-04T15:44:15.238Z,55.90
2024-03-04T15:46:46.727Z,57.60
2024-03-04T15:49:15.781Z,60.20
2024-03-04T15:51:47.509Z,49.00
2024-03-04T15:54:15.408Z,58.40
2024-03-04T15:56:43.668Z,94.30
2024-03-04T15:59:11.924Z,62.10
2024-03-04T16:01:40.130Z,54.20
2024-03-04T16:04:08.363Z,50.20
2024-03-04T16:06:36.560Z,56.30
2024-03-04T16:09:05.080Z,46.90
2024-03-04T16:11:33.029Z,48.50
2024-03-04T16:14:01.032Z,52.50
2024-03-04T16:16:29.649Z,49.90
2024-03-04T16:18:57.642Z,45.20
2024-03-04T16:21:25.843Z,52.10
2024-03-04T16:23:54.363Z,49.90
2024-03-04T16:26:22.468Z,52.30
2024-03-04T16:28:50.756Z,51.30
2024-03-04T16:31:18.768Z,48.60
2024-03-04T16:33:46.671Z,50.70
2024-03-04T16:36:15.494Z,47.20
2024-03-04T16:38:43.935Z,52.10
2024-03-04T16:41:22.692Z,48.10
2024-03-04T16:43:50.938Z,49.80
2024-03-04T16:46:18.932Z,49.80
2024-03-04T16:48:48.671Z,48.30
2024-03-04T16:51:16.970Z,51.60
2024-03-04T16:53:45.903Z,46.90
2024-03-04T16:56:13.901Z,47.90
2024-03-04T16:58:41.952Z,48.80
2024-03-04T17:01:11.562Z,53.20
2024-03-04T17:03:41.411Z,51.50
2024-03-04T17:06:09.428Z,51.90
2024-03-04T17:08:37.316Z,54.50
2024-03-04T17:11:06.451Z,49.30
2024-03-04T17:13:34.756Z,45.10
2024-03-04T17:16:02.710Z,47.60
2024-03-04T17:18:30.690Z,48.60
2024-03-04T17:20:58.673Z,47.60
2024-03-04T17:23:26.738Z,48.80
2024-03-04T17:25:54.720Z,46.80
2024-03-04T17:28:22.860Z,50.30
2024-03-04T17:30:52.704Z,52.00
2024-03-04T17:33:21.362Z,46.50
2024-03-04T17:35:49.497Z,54.00
2024-03-04T17:38:18.671Z,48.30
2024-03-04T17:40:46.908Z,47.00
2024-03-04T17:43:15.582Z,45.30
2024-03-04T17:45:45.949Z,53.30
2024-03-04T17:48:14.792Z,49.10
2024-03-04T17:50:43.631Z,53.60
2024-03-04T17:53:11.556Z,47.40
2024-03-04T17:55:42.691Z,49.00
2024-03-04T17:58:12.664Z,46.10
2024-03-04T18:00:40.709Z,49.80
2024-03-04T18:03:08.768Z,41.80
2024-03-04T18:05:36.906Z,44.00
2024-03-04T18:08:05.126Z,46.60
2024-03-04T18:10:36.512Z,44.50
2024-03-04T18:13:07.029Z,43.80
2024-03-04T18:15:35.436Z,51.80
2024-03-04T18:18:04.129Z,46.20
2024-03-04T18:20:32.086Z,51.10
2024-03-04T18:23:00.006Z,46.50
2024-03-04T18:25:28.174Z,51.70
2024-03-04T18:27:56.036Z,46.10
2024-03-04T18:30:23.957Z,49.50
2024-03-04T18:32:51.963Z,45.90
2024-03-04T18:35:21.126Z,49.70
2024-03-04T18:37:49.270Z,49.50
2024-03-04T18:40:17.212Z,49.30
2024-03-04T18:42:47.553Z,48.90
2024-03-04T18:45:15.560Z,45.50
2024-03-04T18:47:43.459Z,44.00
2024-03-04T18:50:11.484Z,46.00
2024-03-04T18:52:40.009Z,51.40
2024-03-04T18:55:08.081Z,51.50
2024-03-04T18:57:36.247Z,47.20
2024-03-04T19:00:06.377Z,48.80
2024-03-04T19:02:34.739Z,47.70
2024-03-04T19:05:02.784Z,48.30
2024-03-04T19:07:33.556Z,47.10
2024-03-04T19:10:05.298Z,48.30
2024-03-04T19:12:34.728Z,48.80
2024-03-04T19:15:06.438Z,45.30
2024-03-04T19:17:34.512Z,43.30
2024-03-04T19:20:05.475Z,48.60
2024-03-04T19:22:33.569Z,48.00
2024-03-04T19:25:02.618Z,51.40
2024-03-04T19:27:30.544Z,48.90
2024-03-04T19:29:58.520Z,44.70
2024-03-04T19:32:26.487Z,55.00
2024-03-04T19:34:54.458Z,47.10
2024-03-04T19:37:22.365Z,48.60
2024-03-04T19:39:50.415Z,54.00
2024-03-04T19:42:22.230Z,49.70
2024-03-04T19:44:50.305Z,51.40
2024-03-04T19:47:18.238Z,44.20
2024-03-04T19:49:46.148Z,47.00
2024-03-04T19:52:14.405Z,47.30
2024-03-04T19:54:42.340Z,44.80
2024-03-04T19:57:10.217Z,46.20
2024-03-04T19:59:39.300Z,44.20
2024-03-04T20:02:07.392Z,45.10
2024-03-04T20:04:35.364Z,38.40
2024-03-04T20:07:06.459Z,44.20
2024-03-04T20:09:34.733Z,44.40
2024-03-04T20:12:02.734Z,43.40
2024-03-04T20:14:30.957Z,41.20
2024-03-04T20:16:59.309Z,46.30
2024-03-04T20:19:28.168Z,41.80
2024-03-04T20:21:56.486Z,44.80
2024-03-04T20:24:24.394Z,46.50
2024-03-04T20:26:52.215Z,48.10
2024-03-04T20:29:21.606Z,47.60
2024-03-04T20:31:50.139Z,42.00
2024-03-04T20:34:18.099Z,49.20
2024-03-04T20:36:45.925Z,43.00
2024-03-04T20:39:14.612Z,45.50
2024-03-04T20:41:42.530Z,42.90
2024-03-04T20:44:10.470Z,40.60
2024-03-04T20:46:38.374Z,46.30
2024-03-04T20:49:06.325Z,43.90
2024-03-04T20:51:36.356Z,51.60
2024-03-04T20:54:04.679Z,48.70
2024-03-04T20:56:33.390Z,51.20
2024-03-04T20:59:01.531Z,53.80
2024-03-04T21:01:29.629Z,46.90
2024-03-04T21:03:57.841Z,55.20
2024-03-04T21:06:25.779Z,44.60
2024-03-04T21:08:53.811Z,51.50
2024-03-04T21:11:21.846Z,49.60
2024-03-04T21:13:51.522Z,46.20
2024-03-04T21:16:19.655Z,48.10
2024-03-04T21:18:47.489Z,40.50
2024-03-04T21:21:15.417Z,47.50
2024-03-04T21:23:43.783Z,49.60
2024-03-04T21:26:11.720Z,46.50
2024-03-04T21:28:43.898Z,48.30
2024-03-04T21:31:11.998Z,46.60
2024-03-04T21:33:39.888Z,46.00
2024-03-04T21:36:07.907Z,45.60
2024-03-04T21:38:36.081Z,47.70
2024-03-04T21:41:04.627Z,46.30
2024-03-04T21:43:32.582Z,45.40
2024-03-04T21:46:00.712Z,51.40
2024-03-04T21:48:28.720Z,49.60
2024-03-04T21:50:56.738Z,49.80
2024-03-04T21:53:24.964Z,48.90
2024-03-04T21:55:54.203Z,50.70
2024-03-04T21:58:22.452Z,49.50
2024-03-04T22:00:52.228Z,46.60
2024-03-04T22:03:20.268Z,47.50
2024-03-04T22:05:49.796Z,51.00
2024-03-04T22:08:19.894Z,51.00
2024-03-04T22:10:49.123Z,50.70
2024-03-04T22:13:18.872Z,51.60
2024-03-04T22:15:47.040Z,52.80
2024-03-04T22:18:14.979Z,47.50
2024-03-04T22:20:43.032Z,46.90
2024-03-04T22:23:10.960Z,50.20
2024-03-04T22:25:38.849Z,46.70
2024-03-04T22:28:07.465Z,48.40
2024-03-04T22:30:36.665Z,49.40
2024-03-04T22:33:05.093Z,49.90
2024-03-04T22:35:33.069Z,49.80
2024-03-04T22:38:01.114Z,49.80
2024-03-04T22:40:29.118Z,48.80
2024-03-04T22:42:58.239Z,44.00
2024-03-04T22:45:26.469Z,49.10
2024-03-04T22:47:55.465Z,45.20
2024-03-04T22:50:23.421Z,42.70
2024-03-04T22:52:52.571Z,44.50
2024-03-04T22:55:20.575Z,53.10
2024-03-04T22:57:48.556Z,47.60
2024-03-04T23:00:19.152Z,49.90
2024-03-04T23:02:50.277Z,44.00
2024-03-04T23:05:18.456Z,44.40
2024-03-04T23:07:48.718Z,43.50
2024-03-04T23:10:17.310Z,46.20
2024-03-04T23:12:45.233Z,44.10
2024-03-04T23:15:13.664Z,43.90
2024-03-04T23:17:41.682Z,42.80
2024-03-04T23:20:10.257Z,41.10
2024-03-04T23:22:38.360Z,45.60
2024-03-04T23:25:06.538Z,42.40
2024-03-04T23:27:34.405Z,43.50
2024-03-04T23:30:02.833Z,38.20
2024-03-04T23:32:30.893Z,38.90
2024-03-04T23:34:58.875Z,42.90
2024-03-04T23:37:26.754Z,41.40
2024-03-04T23:39:55.840Z,41.70
2024-03-04T23:42:23.687Z,40.30
2024-03-04T23:44:51.644Z,41.90
2024-03-04T23:47:22.295Z,39.20
2024-03-04T23:49:51.954Z,37.90
2024-03-04T23:52:21.428Z,41.30
2024-03-04T23:54:49.407Z,45.80
2024-03-04T23:57:17.811Z,39.80
2024-03-04T23:59:45.739Z,39.10
